Time;durP1;ratioP1;P1;durP2;ratioP2;P2;SDS_P1;SDS_P2;PMS_P1;PMS_P2;Temp;Humidity;BMP_temperature;BMP_pressure;BME280_temperature;BME280_humidity;BME280_pressure;Samples;Min_cycle;Max_cycle;Signal;HPM_P1;HPM_P2
2023/09/21 00:03:21;;;;;;;12.40;7.80;;;;;;;16.01;67.65;100017.99;110424;1265;21971;-81
2023/09/21 00:06:32;;;;;;;11.90;7.30;;;;;;;15.89;67.79;100006.30;110085;1264;24330;-82
2023/09/21 00:09:34;;;;;;;9.70;7.10;;;;;;;15.91;68.10;100016.54;109993;1264;22010;-81
2023/09/21 00:12:41;;;;;;;9.60;7.20;;;;;;;15.90;68.20;100016.45;110248;1264;21980;-81
2023/09/21 00:15:34;;;;;;;10.40;6.30;;;;;;;15.87;68.35;100010.14;110162;1264;23037;-80
2023/09/21 00:18:34;;;;;;;10.60;6.40;;;;;;;15.87;68.45;100008.75;110826;1258;23580;-82
2023/09/21 00:21:31;;;;;;;8.50;7.20;;;;;;;15.82;68.61;100005.38;110888;1258;22373;-80
2023/09/21 00:24:34;;;;;;;7.90;6.30;;;;;;;15.79;68.69;100001.50;110544;1260;22001;-80
2023/09/21 00:27:48;;;;;;;8.30;6.80;;;;;;;15.77;68.80;99998.88;110694;1260;22034;-81
2023/09/21 00:30:41;;;;;;;12.60;6.50;;;;;;;15.76;68.82;100000.17;110775;1260;23042;-81
2023/09/21 00:33:42;;;;;;;10.20;7.40;;;;;;;15.73;69.02;100001.56;110831;1260;22548;-82
2023/09/21 00:36:58;;;;;;;10.80;7.30;;;;;;;15.70;69.02;100001.42;110817;1257;22169;-81
2023/09/21 00:39:41;;;;;;;13.30;8.50;;;;;;;15.68;68.99;100001.70;110111;1265;23281;-81
2023/09/21 00:42:55;;;;;;;10.80;7.80;;;;;;;15.63;69.23;99996.58;110545;1265;22907;-83
2023/09/21 00:45:39;;;;;;;9.00;6.50;;;;;;;15.62;69.19;99996.65;110271;1265;21993;-82
2023/09/21 00:48:43;;;;;;;;;;;;;;;;;;;;;
2023/09/21 00:51:59;;;;;;;12.60;6.90;;;;;;;15.63;69.49;99987.45;110197;1265;21985;-83
2023/09/21 00:56:05;;;;;;;8.80;6.80;;;;;;;15.62;69.26;99995.06;110271;1265;23716;-80
2023/09/21 00:58:42;;;;;;;7.90;7.00;;;;;;;15.59;69.20;99995.26;110830;1259;23784;-79
2023/09/21 01:01:38;;;;;;;8.00;6.90;;;;;;;15.57;69.30;99995.87;110647;1254;22862;-81
2023/09/21 01:04:46;;;;;;;8.50;6.60;;;;;;;15.51;69.33;99980.68;110922;1257;22305;-82
2023/09/21 01:08:33;;;;;;;8.20;6.60;;;;;;;15.52;69.48;99984.83;110805;1258;23160;-81
2023/09/21 01:11:20;;;;;;;11.10;6.60;;;;;;;15.51;69.58;99984.70;110692;1261;22167;-81
2023/09/21 01:14:21;;;;;;;8.20;6.00;;;;;;;15.52;69.60;99980.41;110828;1261;23711;-81
2023/09/21 01:18:12;;;;;;;7.60;6.60;;;;;;;15.50;69.51;99976.88;110831;1261;22976;-81
2023/09/21 01:21:00;;;;;;;10.20;7.80;;;;;;;15.49;69.67;99980.09;109485;1273;22181;-82
2023/09/21 01:23:45;;;;;;;8.50;6.60;;;;;;;15.49;69.59;99972.39;108971;1278;22013;-80
2023/09/21 01:26:27;;;;;;;7.50;6.00;;;;;;;15.48;69.48;99970.73;108579;1283;22401;-81
2023/09/21 01:29:16;;;;;;;6.80;6.00;;;;;;;15.47;69.63;99968.98;108717;1280;24157;-81
2023/09/21 01:32:02;;;;;;;10.30;6.50;;;;;;;15.48;69.64;99967.90;108923;1280;22509;-83
2023/09/21 01:34:55;;;;;;;6.30;5.70;;;;;;;15.48;69.54;99967.72;108750;1280;21986;-82
2023/09/21 01:37:36;;;;;;;9.00;6.40;;;;;;;15.43;69.72;99967.53;108710;1280;22418;-82
2023/09/21 01:40:20;;;;;;;8.50;5.70;;;;;;;15.39;69.78;99964.95;108908;1269;22484;-82
2023/09/21 01:43:16;;;;;;;5.80;5.20;;;;;;;15.38;69.78;99971.01;109206;1273;21976;-80
2023/09/21 01:46:06;;;;;;;7.20;5.70;;;;;;;15.35;69.84;99966.45;109397;1271;22265;-81
2023/09/21 01:49:13;;;;;;;7.90;6.40;;;;;;;15.35;70.00;99961.37;109340;1271;21995;-82
2023/09/21 01:52:01;;;;;;;7.90;6.70;;;;;;;15.34;70.17;99962.60;109391;1270;21986;-83
2023/09/21 01:54:55;;;;;;;9.60;6.00;;;;;;;15.35;70.19;99957.66;109737;1270;22007;-81
2023/09/21 01:58:21;;;;;;;8.00;6.20;;;;;;;15.35;70.11;99950.67;110106;1258;21961;-81
2023/09/21 02:01:22;;;;;;;;;;;;;;;;;;;;;
2023/09/21 02:03:58;;;;;;;8.10;6.30;;;;;;;15.34;70.19;99943.58;110504;1263;23617;-80
2023/09/21 02:06:54;;;;;;;7.40;6.00;;;;;;;15.34;70.20;99942.67;110556;1263;22119;-80
2023/09/21 02:09:47;;;;;;;8.20;6.30;;;;;;;15.34;70.12;99941.79;110216;1260;23777;-81
2023/09/21 02:12:57;;;;;;;7.50;5.50;;;;;;;15.31;70.10;99934.60;110527;1263;21961;-80
2023/09/21 02:15:52;;;;;;;;;;;;;;;;;;;;;
2023/09/21 02:18:33;;;;;;;7.20;6.50;;;;;;;15.30;70.28;99927.31;110738;1254;22448;-80
2023/09/21 02:21:35;;;;;;;9.20;6.10;;;;;;;15.29;70.22;99924.59;111372;1254;21988;-80
2023/09/21 02:24:31;;;;;;;7.50;5.70;;;;;;;15.28;70.28;99924.16;111302;1254;21973;-82
2023/09/21 02:27:11;;;;;;;8.80;6.30;;;;;;;15.26;70.17;99917.08;111176;1254;21958;-80
2023/09/21 02:29:57;;;;;;;10.10;6.40;;;;;;;15.23;70.12;99919.56;111095;1248;22369;-81
2023/09/21 02:33:09;;;;;;;8.80;6.30;;;;;;;15.19;70.29;99921.20;111159;1254;23107;-81
2023/09/21 02:36:25;;;;;;;11.00;6.60;;;;;;;15.14;70.38;99914.52;111436;1254;21954;-82
2023/09/21 02:39:35;;;;;;;9.40;6.70;;;;;;;15.12;70.47;99911.15;111183;1254;23599;-81
2023/09/21 02:42:30;;;;;;;9.10;6.30;;;;;;;15.08;70.50;99910.52;111332;1254;21973;-82
2023/09/21 02:45:47;;;;;;;11.00;6.90;;;;;;;15.06;70.39;99909.73;111277;1254;22199;-80
2023/09/21 02:48:50;;;;;;;10.20;6.60;;;;;;;15.02;70.63;99906.51;110695;1258;22027;-80
2023/09/21 02:51:28;;;;;;;11.00;6.10;;;;;;;15.01;70.61;99905.11;110472;1261;22582;-81
2023/09/21 02:54:29;;;;;;;11.80;6.10;;;;;;;15.03;70.72;99905.40;110720;1260;22397;-80
2023/09/21 02:57:41;;;;;;;6.80;6.00;;;;;;;15.00;70.69;99903.59;110683;1260;22384;-80
2023/09/21 03:00:45;;;;;;;10.10;6.20;;;;;;;14.99;70.76;99901.38;110636;1260;21973;-83
2023/09/21 03:04:12;;;;;;;10.30;5.80;;;;;;;14.97;70.77;99899.46;110708;1260;22551;-82
2023/09/21 03:06:48;;;;;;;11.80;6.00;;;;;;;14.97;70.77;99897.34;110621;1257;21973;-81
2023/09/21 03:09:42;;;;;;;7.40;5.80;;;;;;;14.97;70.78;99897.52;110815;1260;21974;-80
2023/09/21 03:12:32;;;;;;;8.90;5.60;;;;;;;14.98;70.65;99891.66;110197;1265;23801;-79
2023/09/21 03:15:34;;;;;;;8.70;6.70;;;;;;;14.98;70.69;99888.55;109488;1271;23702;-79
2023/09/21 03:18:47;;;;;;;12.30;10.20;;;;;;;14.98;70.60;99887.14;109629;1268;22502;-79
2023/09/21 03:21:44;;;;;;;10.50;8.50;;;;;;;14.97;70.54;99886.48;109910;1268;22436;-79
2023/09/21 03:24:54;;;;;;;11.50;7.40;;;;;;;14.94;70.60;99887.00;109884;1255;23872;-79
2023/09/21 03:27:40;;;;;;;10.30;6.80;;;;;;;14.93;70.40;99879.01;109817;1268;23331;-80
2023/09/21 03:30:26;;;;;;;12.20;6.90;;;;;;;14.92;70.45;99874.75;109693;1262;23705;-80
2023/09/21 03:33:23;;;;;;;9.20;7.10;;;;;;;14.88;70.46;99874.29;110532;1258;21981;-82
2023/09/21 03:36:19;;;;;;;15.00;12.90;;;;;;;14.87;70.55;99879.56;110918;1257;21995;-81
2023/09/21 03:39:21;;;;;;;12.10;8.10;;;;;;;14.86;70.51;99881.05;110856;1260;23628;-81
2023/09/21 03:42:35;;;;;;;10.20;7.80;;;;;;;14.86;70.59;99878.21;110871;1257;23720;-81
2023/09/21 03:45:29;;;;;;;8.70;7.70;;;;;;;14.84;70.57;99871.16;111057;1251;23061;-82
2023/09/21 03:49:00;;;;;;;10.60;7.40;;;;;;;14.81;70.57;99872.76;110987;1257;21954;-81
2023/09/21 03:51:47;;;;;;;9.30;7.00;;;;;;;14.73;70.61;99857.48;110240;1259;23642;-79
2023/09/21 03:55:07;;;;;;;12.50;7.60;;;;;;;14.77;70.61;99866.33;109507;1270;22790;-79
2023/09/21 03:58:12;;;;;;;12.30;7.70;;;;;;;14.78;70.62;99863.85;109333;1270;23241;-79
2023/09/21 04:01:09;;;;;;;9.10;7.80;;;;;;;14.76;70.63;99861.67;109181;1274;22190;-78
2023/09/21 04:03:57;;;;;;;9.20;7.90;;;;;;;14.76;70.74;99861.36;109344;1271;24253;-79
2023/09/21 04:06:42;;;;;;;11.20;7.80;;;;;;;14.76;70.73;99863.27;109262;1273;23662;-79
2023/09/21 04:09:28;;;;;;;8.90;7.20;;;;;;;14.75;70.63;99864.25;109332;1268;21973;-78
2023/09/21 04:13:03;;;;;;;8.70;7.30;;;;;;;14.72;70.78;99862.14;110547;1260;21963;-78
2023/09/21 04:15:54;;;;;;;;;;;;;;;14.70;70.92;99860.83;110343;1260;23578;-79
2023/09/21 04:18:35;;;;;;;13.90;8.10;;;;;;;14.62;71.06;99861.34;109952;1267;22075;-79
2023/09/21 04:21:38;;;;;;;12.50;8.00;;;;;;;14.61;70.97;99860.55;110052;1268;23031;-79
2023/09/21 04:24:57;;;;;;;12.60;7.70;;;;;;;14.61;71.03;99860.19;110199;1260;21996;-81
2023/09/21 04:28:36;;;;;;;10.40;7.80;;;;;;;14.60;71.17;99857.77;110114;1267;24897;-80
2023/09/21 04:31:58;;;;;;;10.30;7.20;;;;;;;14.59;71.20;99855.55;110259;1266;24287;-79
2023/09/21 04:34:50;;;;;;;7.90;6.20;;;;;;;14.61;71.25;99851.25;109826;1266;21993;-78
2023/09/21 04:37:58;;;;;;;12.60;6.90;;;;;;;14.62;71.22;99845.37;110005;1267;21976;-79
2023/09/21 04:40:48;;;;;;;10.90;7.60;;;;;;;14.64;71.23;99840.23;110168;1266;23012;-79
2023/09/21 04:43:49;;;;;;;10.20;6.60;;;;;;;14.65;71.25;99839.64;110248;1260;22067;-82
2023/09/21 04:46:49;;;;;;;10.20;6.80;;;;;;;14.68;71.29;99840.17;110971;1255;22745;-80
2023/09/21 04:49:29;;;;;;;7.40;6.70;;;;;;;14.70;71.24;99840.71;110658;1254;21983;-80
2023/09/21 04:56:02;;;;;;;10.80;7.60;;;;;;;14.74;71.33;99844.33;110075;1266;24112;-81
2023/09/21 04:58:59;;;;;;;11.70;7.70;;;;;;;14.77;71.29;99843.77;110042;1266;21971;-80
2023/09/21 05:01:41;;;;;;;12.00;7.10;;;;;;;14.81;71.27;99839.50;110035;1266;23633;-80
2023/09/21 05:04:32;;;;;;;14.70;8.50;;;;;;;14.84;71.22;99835.65;110094;1266;23586;-80
2023/09/21 05:07:59;;;;;;;10.70;7.70;;;;;;;14.86;71.23;99832.71;109620;1266;22573;-80
2023/09/21 05:11:16;;;;;;;9.60;6.50;;;;;;;14.89;71.30;99833.22;109181;1277;22000;-81
2023/09/21 05:15:31;;;;;;;13.00;7.60;;;;;;;14.91;71.31;99828.02;109603;1271;24504;-82
2023/09/21 05:22:13;;;;;;;10.80;7.20;;;;;;;15.02;71.37;99833.25;109593;1271;21974;-81
2023/09/21 05:25:17;;;;;;;12.60;7.40;;;;;;;15.09;71.30;99828.59;109555;1270;22330;-81
2023/09/21 05:28:18;;;;;;;10.60;7.70;;;;;;;15.17;71.29;99829.08;109824;1266;23766;-81
2023/09/21 05:31:25;;;;;;;10.20;7.80;;;;;;;15.27;71.15;99824.99;109562;1271;23087;-80
2023/09/21 05:34:16;;;;;;;8.80;7.10;;;;;;;15.35;71.04;99825.50;109479;1271;21961;-79
2023/09/21 05:37:03;;;;;;;12.20;7.50;;;;;;;15.43;70.82;99827.23;109549;1260;21978;-80
2023/09/21 05:39:51;;;;;;;11.20;7.00;;;;;;;15.49;70.81;99819.63;109359;1272;23064;-78
2023/09/21 05:42:52;;;;;;;10.00;7.20;;;;;;;15.57;70.84;99817.02;109046;1277;23100;-79
2023/09/21 05:45:56;;;;;;;8.90;7.00;;;;;;;15.65;70.76;99815.81;109067;1275;21993;-79
2023/09/21 05:48:56;;;;;;;8.10;5.40;;;;;;;15.73;70.70;99818.81;109634;1267;22065;-79
2023/09/21 05:51:47;;;;;;;9.60;6.20;;;;;;;15.84;70.57;99820.88;109368;1272;21975;-79
2023/09/21 05:54:24;;;;;;;8.10;5.30;;;;;;;15.95;70.50;99822.38;109339;1264;22003;-81
2023/09/21 05:57:28;;;;;;;;;;;;;;;;;;;;;
2023/09/21 06:01:30;;;;;;;;;;;;;;;;;;;;;
2023/09/21 06:08:40;;;;;;;12.20;6.80;;;;;;;16.58;69.65;99819.73;108809;1282;22022;-78
2023/09/21 06:11:24;;;;;;;13.00;8.70;;;;;;;16.78;69.05;99821.81;108528;1282;22013;-78
2023/09/21 06:14:20;;;;;;;9.20;5.30;;;;;;;16.93;68.92;99821.15;108789;1273;21980;-78
2023/09/21 06:17:10;;;;;;;7.60;5.90;;;;;;;17.10;68.67;99816.52;109064;1273;22054;-77
2023/09/21 06:19:57;;;;;;;;;;;;;;;;;;;;;
2023/09/21 06:22:42;;;;;;;7.60;5.20;;;;;;;17.50;68.01;99818.88;108710;1266;22042;-78
2023/09/21 06:25:29;;;;;;;5.60;4.40;;;;;;;17.71;67.46;99819.41;108770;1279;23644;-79
2023/09/21 06:28:01;;;;;;;8.00;4.50;;;;;;;17.97;67.09;99820.64;108521;1283;23738;-78
2023/09/21 06:30:47;;;;;;;7.10;4.60;;;;;;;18.27;66.85;99815.84;108746;1276;22006;-79
2023/09/21 06:33:57;;;;;;;6.30;4.80;;;;;;;18.67;66.09;99811.98;108765;1279;21991;-80
2023/09/21 06:36:50;;;;;;;7.30;4.80;;;;;;;19.16;64.88;99811.05;108313;1285;22041;-78
2023/09/21 06:39:28;;;;;;;6.00;4.10;;;;;;;19.55;63.53;99802.86;109149;1255;23045;-79
2023/09/21 06:42:24;;;;;;;7.60;4.40;;;;;;;20.00;62.55;99803.83;110188;1268;23809;-78
2023/09/21 06:45:14;;;;;;;5.40;4.30;;;;;;;20.44;61.24;99800.91;109927;1268;21973;-79
2023/09/21 06:48:08;;;;;;;7.90;4.00;;;;;;;20.86;59.98;99799.54;110279;1265;21990;-79
2023/09/21 06:51:25;;;;;;;7.80;4.30;;;;;;;21.28;58.56;99797.74;110221;1265;22012;-81
2023/09/21 06:54:26;;;;;;;7.50;3.80;;;;;;;21.69;57.22;99797.44;110324;1266;21995;-80
2023/09/21 06:57:43;;;;;;;5.60;3.70;;;;;;;22.05;55.91;99795.86;110448;1265;23746;-79
2023/09/21 07:01:00;;;;;;;5.20;3.90;;;;;;;22.41;55.17;99797.27;110022;1260;21998;-79
2023/09/21 07:04:28;;;;;;;8.40;3.90;;;;;;;22.78;54.15;99797.76;110635;1258;23724;-79
2023/09/21 07:07:07;;;;;;;7.60;4.70;;;;;;;23.11;53.11;99798.33;110375;1264;22733;-78
2023/09/21 07:10:00;;;;;;;4.20;3.70;;;;;;;23.43;52.24;99798.87;110293;1264;23108;-78
2023/09/21 07:12:45;;;;;;;7.80;3.70;;;;;;;23.69;51.50;99791.63;110012;1264;21973;-78
2023/09/21 07:15:59;;;;;;;5.10;3.80;;;;;;;23.83;50.40;99787.70;110510;1264;23707;-77
2023/09/21 07:19:12;;;;;;;;;;;;;;;23.91;50.09;99788.83;109562;1270;22018;-77
2023/09/21 07:21:56;;;;;;;14.70;4.10;;;;;;;23.90;50.03;99790.85;109467;1270;24459;-78
2023/09/21 07:24:28;;;;;;;9.40;4.00;;;;;;;24.02;50.06;99788.41;109537;1263;21972;-77
2023/09/21 07:27:06;;;;;;;6.70;3.60;;;;;;;24.22;49.43;99785.80;110720;1260;22482;-77
2023/09/21 07:29:49;;;;;;;8.30;3.30;;;;;;;24.34;49.14;99784.18;110827;1259;22000;-78
2023/09/21 07:32:28;;;;;;;6.10;3.40;;;;;;;24.58;49.00;99789.72;110701;1258;23777;-78
2023/09/21 07:35:26;;;;;;;7.60;3.10;;;;;;;24.79;48.56;99783.27;110374;1260;23038;-77
2023/09/21 07:38:11;;;;;;;4.30;2.70;;;;;;;25.00;47.72;99781.90;110588;1260;21988;-77
2023/09/21 07:41:08;;;;;;;8.80;3.20;;;;;;;25.19;47.03;99779.46;110536;1259;22109;-78
2023/09/21 07:43:49;;;;;;;7.00;2.90;;;;;;;25.36;46.57;99777.71;110580;1260;22733;-78
2023/09/21 07:46:19;;;;;;;8.40;3.00;;;;;;;25.52;46.43;99777.51;109935;1266;21975;-78
2023/09/21 07:49:01;;;;;;;6.70;2.70;;;;;;;25.72;45.65;99773.95;110203;1265;21970;-77
2023/09/21 07:51:47;;;;;;;;;;;;;;;;;;;;;
2023/09/21 07:54:53;;;;;;;12.10;3.30;;;;;;;26.03;44.73;99766.35;110106;1266;21983;-80
2023/09/21 07:58:05;;;;;;;;;;;;;;;;;;;;;
2023/09/21 08:01:18;;;;;;;7.30;2.90;;;;;;;26.33;43.53;99764.77;109475;1270;23909;-78
2023/09/21 08:04:21;;;;;;;6.60;2.40;;;;;;;26.51;43.41;99765.58;109654;1264;23094;-80
2023/09/21 08:07:15;;;;;;;8.50;2.60;;;;;;;26.65;42.84;99761.80;109539;1271;24197;-78
2023/09/21 08:10:08;;;;;;;3.30;2.20;;;;;;;26.88;42.93;99761.73;109596;1270;23014;-79
2023/09/21 08:12:41;;;;;;;5.70;2.90;;;;;;;27.15;42.40;99762.69;109364;1271;23731;-78
2023/09/21 08:15:52;;;;;;;;;;;;;;;;;;;;;
2023/09/21 08:19:22;;;;;;;;;;;;;;;;;;;;;
2023/09/21 08:24:11;;;;;;;10.90;3.20;;;;;;;27.46;41.01;99746.91;109229;1275;24304;-80
2023/09/21 08:28:02;;;;;;;;;;;;;;;;;;;;;
2023/09/21 08:32:20;;;;;;;5.80;2.90;;;;;;;27.48;40.40;99744.58;104389;1281;22023;-80
2023/09/21 08:36:32;;;;;;;;;;;;;;;;;;;;;
2023/09/21 08:41:13;;;;;;;;;;;;;;;;;;;;;
2023/09/21 08:45:19;;;;;;;7.10;2.60;;;;;;;27.86;40.36;99745.59;109114;1276;22005;-81
2023/09/21 08:48:27;;;;;;;;;;;;;;;;;;;;;
2023/09/21 08:53:08;;;;;;;5.50;2.60;;;;;;;28.36;39.64;99735.80;109436;1273;22889;-81
2023/09/21 08:56:36;;;;;;;10.60;2.60;;;;;;;28.50;38.65;99731.81;108776;1281;21973;-80
2023/09/21 09:00:26;;;;;;;;;;;;;;;;;;;;;
2023/09/21 09:03:58;;;;;;;21.40;2.70;;;;;;;28.74;38.32;99715.05;107379;1299;23069;-79
2023/09/21 09:07:06;;;;;;;;;;;;;;;;;;;;;
2023/09/21 09:10:10;;;;;;;;;;;;;;;;;;;;;
2023/09/21 09:13:15;;;;;;;5.70;2.40;;;;;;;28.97;37.66;99717.49;107847;1295;24505;-80
2023/09/21 09:16:32;;;;;;;10.00;2.90;;;;;;;29.10;37.26;99715.02;107705;1295;22044;-80
2023/09/21 09:19:20;;;;;;;5.50;2.90;;;;;;;29.26;37.12;99711.08;108101;1286;23676;-79
2023/09/21 09:22:35;;;;;;;4.60;2.30;;;;;;;29.34;36.56;99711.29;108444;1286;23090;-80
2023/09/21 09:25:49;;;;;;;5.10;2.90;;;;;;;29.38;36.57;99710.75;108468;1286;23145;-81
2023/09/21 09:29:04;;;;;;;4.50;1.90;;;;;;;29.39;36.27;99707.70;108490;1286;21997;-80
2023/09/21 09:32:06;;;;;;;;;;;;;;;;;;;;;
2023/09/21 09:35:15;;;;;;;7.40;3.00;;;;;;;29.41;36.15;99702.41;109847;1270;21971;-80
2023/09/21 09:38:25;;;;;;;;;;;;;;;;;;;;;
2023/09/21 09:42:07;;;;;;;;;;;;;;;;;;;;;
2023/09/21 09:54:45;;;;;;;;;;;;;;;;;;;;;
2023/09/21 09:58:47;;;;;;;;;;;;;;;;;;;;;
2023/09/21 10:02:56;;;;;;;7.60;2.60;;;;;;;30.06;35.14;99689.13;108284;1289;22016;-81
2023/09/21 10:08:46;;;;;;;;;;;;;;;30.32;34.90;99684.09;107688;1295;22012;-81
2023/09/21 10:11:34;;;;;;;5.80;2.60;;;;;;;30.27;34.65;99682.20;107904;1295;22023;-84
2023/09/21 10:14:23;;;;;;;9.00;2.70;;;;;;;30.40;34.69;99680.92;107722;1295;22324;-84
2023/09/21 10:17:14;;;;;;;6.40;2.90;;;;;;;30.49;34.24;99672.21;107630;1298;22022;-84
2023/09/21 10:20:54;;;;;;;9.70;3.90;;;;;;;30.50;34.03;99674.13;107177;1298;22019;-84
2023/09/21 10:24:08;;;;;;;16.70;4.90;;;;;;;30.68;33.94;99671.20;106260;1305;23755;-85
2023/09/21 10:26:43;;;;;;;;;;;;;;;30.91;33.12;99669.58;107524;1293;21995;-85
2023/09/21 10:29:44;;;;;;;10.10;3.40;;;;;;;30.88;32.51;99663.76;108095;1283;23062;-84
2023/09/21 10:32:53;;;;;;;9.20;3.40;;;;;;;31.06;33.04;99664.94;108724;1282;23727;-84
2023/09/21 10:35:58;;;;;;;10.20;3.80;;;;;;;31.38;32.74;99663.06;108639;1282;22057;-84
2023/09/21 10:39:24;;;;;;;11.90;3.60;;;;;;;31.55;32.08;99656.20;108935;1277;21995;-85
2023/09/21 10:42:09;;;;;;;9.10;3.60;;;;;;;31.74;31.80;99657.86;109178;1277;22004;-79
2023/09/21 10:45:00;;;;;;;7.50;3.50;;;;;;;31.74;30.98;99652.87;108731;1274;23772;-82
2023/09/21 10:48:24;;;;;;;;;;;;;;;;;;;;;
2023/09/21 10:51:39;;;;;;;11.50;3.40;;;;;;;31.16;31.13;99650.54;108764;1280;22654;-82
2023/09/21 10:55:26;;;;;;;11.60;4.10;;;;;;;30.99;32.22;99642.93;108667;1283;22250;-84
2023/09/21 10:58:39;;;;;;;14.40;3.40;;;;;;;30.96;31.93;99640.11;108437;1286;22019;-80
2023/09/21 11:01:39;;;;;;;9.70;4.30;;;;;;;30.54;32.05;99631.83;109225;1272;21991;-80
2023/09/21 11:09:37;;;;;;;;;;;;;;;;;;;;;
2023/09/21 11:13:50;;;;;;;;;;;;;;;;;;;;;
2023/09/21 11:17:17;;;;;;;;;;;;;;;;;;;;;
2023/09/21 11:20:41;;;;;;;11.20;4.90;;;;;;;28.99;34.44;99607.88;108443;1286;23784;-80
2023/09/21 11:24:35;;;;;;;9.90;4.20;;;;;;;28.81;34.49;99609.07;108239;1291;22035;-80
2023/09/21 11:28:15;;;;;;;;;;;;;;;;;;;;;
2023/09/21 11:30:56;;;;;;;8.80;4.30;;;;;;;28.59;34.80;99602.28;110845;1250;23035;-80
2023/09/21 11:34:22;;;;;;;6.20;3.80;;;;;;;28.52;34.89;99601.41;110598;1261;21971;-80
2023/09/21 11:36:58;;;;;;;7.00;3.50;;;;;;;28.49;34.87;99588.91;110608;1261;21954;-79
2023/09/21 11:39:52;;;;;;;10.40;3.90;;;;;;;28.48;35.07;99581.91;109844;1266;23035;-79
2023/09/21 11:42:35;;;;;;;7.20;3.90;;;;;;;28.46;35.09;99579.92;107612;1268;3189736;-79
2023/09/21 11:45:24;;;;;;;7.20;4.00;;;;;;;28.44;35.18;99575.92;109757;1268;22290;-80
2023/09/21 11:48:01;;;;;;;6.60;3.80;;;;;;;28.35;35.16;99577.05;109929;1262;21971;-79
2023/09/21 11:51:20;;;;;;;8.00;3.60;;;;;;;28.23;35.27;99574.80;110492;1262;23680;-79
2023/09/21 11:54:09;;;;;;;8.10;4.60;;;;;;;28.19;35.43;99570.08;109722;1268;21988;-79
2023/09/21 11:56:55;;;;;;;8.90;4.40;;;;;;;28.19;35.27;99566.05;110031;1264;23717;-79
2023/09/21 12:00:17;;;;;;;8.60;3.80;;;;;;;28.13;35.24;99560.76;110736;1253;23026;-85
2023/09/21 12:07:14;;;;;;;;;;;;;;;;;;;;;
2023/09/21 12:10:02;;;;;;;12.90;3.60;;;;;;;28.16;35.46;99547.95;110230;1266;21983;-78
2023/09/21 12:13:27;;;;;;;8.00;4.50;;;;;;;28.13;35.48;99545.14;110361;1259;21992;-84
2023/09/21 12:17:29;;;;;;;;;;;;;;;;;;;;;
2023/09/21 12:21:00;;;;;;;7.90;3.30;;;;;;;27.93;35.49;99535.17;110032;1268;24247;-83
2023/09/21 12:24:08;;;;;;;7.30;3.60;;;;;;;27.90;35.66;99535.28;109665;1267;23054;-83
2023/09/21 12:27:06;;;;;;;9.20;3.20;;;;;;;27.86;35.67;99535.29;109291;1276;22054;-84
2023/09/21 12:29:53;;;;;;;8.50;3.20;;;;;;;27.90;35.85;99530.02;109332;1276;22003;-81
2023/09/21 12:32:49;;;;;;;6.60;2.90;;;;;;;27.91;35.52;99528.25;109084;1276;21993;-78
2023/09/21 12:35:27;;;;;;;6.40;2.90;;;;;;;27.90;35.23;99526.09;108974;1276;21986;-84
2023/09/21 12:38:16;;;;;;;8.70;3.30;;;;;;;27.90;35.33;99524.73;109158;1276;22841;-80
2023/09/21 12:41:30;;;;;;;7.00;4.00;;;;;;;28.06;35.14;99518.64;107821;1293;544649;-83
2023/09/21 12:44:10;;;;;;;6.40;3.10;;;;;;;27.95;34.97;99508.09;109732;1271;21970;-82
2023/09/21 12:46:44;;;;;;;7.30;4.30;;;;;;;27.96;35.20;99508.38;109612;1271;23055;-83
2023/09/21 12:49:17;;;;;;;9.60;3.60;;;;;;;27.99;35.06;99510.27;109778;1271;21974;-79
2023/09/21 12:52:05;;;;;;;5.40;2.90;;;;;;;28.01;34.95;99504.23;109779;1272;21976;-81
2023/09/21 12:54:46;;;;;;;8.30;3.40;;;;;;;28.02;35.33;99503.56;107763;1265;3128789;-79
2023/09/21 12:57:29;;;;;;;7.10;3.00;;;;;;;28.08;35.27;99500.07;110274;1264;23755;-81
2023/09/21 13:00:11;;;;;;;9.00;3.10;;;;;;;28.13;35.34;99499.09;109578;1269;21972;-80
2023/09/21 13:07:56;;;;;;;7.00;3.10;;;;;;;28.08;35.15;99497.64;109955;1277;22170;-86
2023/09/21 13:10:54;;;;;;;8.00;2.90;;;;;;;28.06;35.19;99493.50;109380;1275;21952;-85
2023/09/21 13:14:02;;;;;;;5.90;2.90;;;;;;;28.06;35.32;99493.37;109429;1277;22007;-87
2023/09/21 13:16:40;;;;;;;5.90;3.00;;;;;;;28.10;35.32;99494.64;109161;1277;21996;-88
2023/09/21 13:20:04;;;;;;;4.40;2.80;;;;;;;28.06;35.29;99483.80;109356;1277;22512;-85
2023/09/21 13:23:05;;;;;;;7.60;2.90;;;;;;;27.99;35.24;99484.32;109246;1277;21986;-85
2023/09/21 13:26:15;;;;;;;5.10;2.50;;;;;;;27.96;35.10;99482.05;109470;1272;23697;-87
2023/09/21 13:29:22;;;;;;;4.10;2.30;;;;;;;27.94;35.11;99479.51;109507;1273;23725;-84
2023/09/21 13:32:17;;;;;;;5.40;3.20;;;;;;;27.94;35.23;99479.30;109677;1267;22860;-87
2023/09/21 13:35:44;;;;;;;8.40;2.90;;;;;;;27.94;35.36;99473.79;109677;1272;21986;-85
2023/09/21 13:39:03;;;;;;;8.80;3.10;;;;;;;27.94;35.40;99470.73;109671;1274;21995;-86
2023/09/21 13:42:05;;;;;;;4.40;2.50;;;;;;;28.00;35.38;99470.01;109493;1274;21942;-87
2023/09/21 13:45:03;;;;;;;5.80;2.70;;;;;;;28.05;35.25;99469.71;109963;1266;23593;-84
2023/09/21 13:49:16;;;;;;;;;;;;;;;;;;;;;
2023/09/21 13:52:43;;;;;;;;;;;;;;;;;;;;;
2023/09/21 13:55:29;;;;;;;5.90;2.90;;;;;;;27.97;35.48;99456.07;109612;1275;22385;-84
2023/09/21 13:59:14;;;;;;;5.60;2.80;;;;;;;28.04;35.58;99458.60;109251;1275;22182;-85
2023/09/21 14:10:49;;;;;;;4.40;2.90;;;;;;;27.93;35.54;99451.70;108955;1281;21988;-84
2023/09/21 14:13:45;;;;;;;6.70;3.10;;;;;;;27.90;35.61;99450.11;108978;1275;22004;-84
2023/09/21 14:16:39;;;;;;;6.10;3.10;;;;;;;27.90;35.65;99445.15;108943;1283;22003;-84
2023/09/21 14:28:57;;;;;;;;;;;;;;;;;;;;;
2023/09/21 14:46:11;;;;;;;8.90;2.70;;;;;;;28.80;34.23;99430.40;110770;1250;547987;-84
2023/09/21 14:50:04;;;;;;;;;;;;;;;;;;;;;
2023/09/21 14:54:13;;;;;;;;;;;;;;;;;;;;;
2023/09/21 14:58:56;;;;;;;;;;;;;;;;;;;;;
2023/09/21 15:03:38;;;;;;;;;;;;;;;;;;;;;
2023/09/21 15:07:44;;;;;;;7.50;2.70;;;;;;;27.43;36.77;99409.25;109451;1274;24348;-82
2023/09/21 15:12:18;;;;;;;14.60;3.30;;;;;;;27.32;37.01;99409.77;109272;1274;22381;-82
2023/09/21 15:16:26;;;;;;;;;;;;;;;;;;;;;
2023/09/21 15:23:24;;;;;;;9.60;2.70;;;;;;;26.95;37.92;99395.13;109443;1273;23069;-83
2023/09/21 15:31:50;;;;;;;;;;;;;;;;;;;;;
2023/09/21 15:35:41;;;;;;;10.50;3.40;;;;;;;26.63;38.44;99384.05;109675;1272;21982;-82
2023/09/21 15:39:18;;;;;;;;;;;;;;;;;;;;;
2023/09/21 16:17:37;;;;;;;;;;;;;;;;;;;;;
2023/09/21 16:21:26;;;;;;;;;;;;;;;;;;;;;
2023/09/21 16:29:46;;;;;;;;;;;;;;;;;;;;;
2023/09/21 16:36:01;;;;;;;;;;;;;;;;;;;;;
2023/09/21 16:39:27;;;;;;;;;;;;;;;;;;;;;
2023/09/21 17:38:16;;;;;;;;;;;;;;;;;;;;;
2023/09/21 17:42:42;;;;;;;8.90;4.80;;;;;;;25.07;41.51;99350.39;112527;1250;22482;-82
2023/09/21 17:48:14;;;;;;;;;;;;;;;;;;;;;
2023/09/21 18:21:44;;;;;;;;;;;;;;;;;;;;;
2023/09/21 18:26:14;;;;;;;;;;;;;;;;;;;;;
2023/09/21 18:30:00;;;;;;;8.90;4.80;;;;;;;24.79;43.01;99337.34;114033;1232;21881;-83
2023/09/21 18:32:39;;;;;;;5.90;4.50;;;;;;;24.70;43.36;99339.52;113842;1232;22416;-83
2023/09/21 18:36:15;;;;;;;10.80;5.10;;;;;;;24.62;43.49;99337.52;113046;1240;22425;-85
2023/09/21 18:40:46;;;;;;;9.40;5.00;;;;;;;24.44;44.20;99335.23;111813;1255;22361;-86
2023/09/21 18:44:37;;;;;;;8.10;4.80;;;;;;;24.29;44.54;99335.20;110142;1270;22004;-81
2023/09/21 18:48:26;;;;;;;;;;;;;;;;;;;;;
2023/09/21 18:51:47;;;;;;;;;;;;;;;;;;;;;
2023/09/21 19:16:52;;;;;;;8.50;4.70;;;;;;;24.32;45.20;99322.67;101984;1272;23967;-81
2023/09/21 19:35:11;;;;;;;6.00;4.00;;;;;;;24.11;45.73;99313.88;103394;1261;22661;-83
2023/09/21 19:39:27;;;;;;;;;;;;;;;;;;;;;
2023/09/21 19:44:06;;;;;;;;;;;;;;;;;;;;;
2023/09/21 19:48:41;;;;;;;;;;;;;;;;;;;;;
2023/09/21 19:53:14;;;;;;;;;;;;;;;;;;;;;
2023/09/21 19:56:30;;;;;;;6.90;3.30;;;;;;;22.92;49.05;99303.04;109577;1273;23723;-80
2023/09/21 20:00:01;;;;;;;;;;;;;;;;;;;;;
2023/09/21 20:02:51;;;;;;;5.90;3.20;;;;;;;22.87;49.21;99298.50;109390;1272;22009;-82
2023/09/21 20:09:13;;;;;;;7.60;3.60;;;;;;;22.79;49.57;99291.96;109312;1278;23754;-80
2023/09/21 20:12:10;;;;;;;5.80;3.80;;;;;;;22.76;49.56;99293.02;109691;1270;22353;-82
2023/09/21 20:15:10;;;;;;;6.50;3.70;;;;;;;22.73;49.65;99292.45;109612;1270;21963;-81
2023/09/21 20:17:40;;;;;;;7.20;3.70;;;;;;;22.72;49.71;99284.77;109469;1273;22314;-82
2023/09/21 20:20:58;;;;;;;8.40;3.30;;;;;;;22.71;49.66;99282.20;109645;1270;21985;-83